createdAt,value
2019-03-23T00:02:05.326Z,29.55
2019-03-23T00:04:34.357Z,28.20
2019-03-23T00:07:03.359Z,28.52
2019-03-23T00:09:32.284Z,29.02
2019-03-23T00:12:01.229Z,28.80
2019-03-23T00:14:30.151Z,30.00
2019-03-23T00:16:59.114Z,29.80
2019-03-23T00:19:28.125Z,27.77
2019-03-23T00:21:57.122Z,30.00
2019-03-23T00:24:26.046Z,30.23
2019-03-23T00:26:54.970Z,28.35
2019-03-23T00:29:23.902Z,29.17
2019-03-23T00:31:52.920Z,27.17
2019-03-23T00:34:21.839Z,30.33
2019-03-23T00:36:50.948Z,26.97
2019-03-23T00:39:19.938Z,28.85
2019-03-23T00:41:48.915Z,27.40
2019-03-23T00:44:17.886Z,26.45
2019-03-23T00:46:46.889Z,27.37
2019-03-23T00:49:15.837Z,26.70
2019-03-23T00:51:44.832Z,27.37
2019-03-23T00:54:13.865Z,26.25
2019-03-23T00:56:42.772Z,27.42
2019-03-23T00:59:11.711Z,27.62
2019-03-23T01:01:40.665Z,27.30
2019-03-23T01:04:09.625Z,27.07
2019-03-23T01:06:38.511Z,27.87
2019-03-23T01:09:08.021Z,28.20
2019-03-23T01:11:36.939Z,28.17
2019-03-23T01:14:05.911Z,26.90
2019-03-23T01:16:34.854Z,27.70
2019-03-23T01:19:03.713Z,27.50
2019-03-23T01:21:32.643Z,27.65
2019-03-23T01:24:01.632Z,27.87
2019-03-23T01:26:30.561Z,28.83
2019-03-23T01:28:59.581Z,29.65
2019-03-23T01:31:28.519Z,28.65
2019-03-23T01:33:57.607Z,28.52
2019-03-23T01:36:26.649Z,28.00
2019-03-23T01:38:55.598Z,28.85
2019-03-23T01:41:24.554Z,29.25
2019-03-23T01:43:53.526Z,29.72
2019-03-23T01:46:22.498Z,29.05
2019-03-23T01:48:51.446Z,29.82
2019-03-23T01:51:20.445Z,29.85
2019-03-23T01:53:49.365Z,27.50
2019-03-23T01:56:18.311Z,28.65
2019-03-23T01:58:47.249Z,28.02
2019-03-23T02:01:16.309Z,24.72
2019-03-23T02:03:45.302Z,27.90
2019-03-23T02:06:14.219Z,27.45
2019-03-23T02:08:43.167Z,27.55
2019-03-23T02:11:12.093Z,27.52
2019-03-23T02:13:41.032Z,27.37
2019-03-23T02:16:09.994Z,27.85
2019-03-23T02:18:38.947Z,26.02
2019-03-23T02:21:07.891Z,27.85
2019-03-23T02:23:36.918Z,26.17
2019-03-23T02:26:05.831Z,26.95
2019-03-23T02:28:34.777Z,26.70
2019-03-23T02:31:03.715Z,24.57
2019-03-23T02:33:32.711Z,25.95
2019-03-23T02:36:01.635Z,26.80
2019-03-23T02:38:30.596Z,24.50
2019-03-23T02:40:59.511Z,25.12
2019-03-23T02:43:28.531Z,24.70
2019-03-23T02:45:57.460Z,24.07
2019-03-23T02:48:26.461Z,24.43
2019-03-23T02:50:56.449Z,24.75
2019-03-23T02:53:25.380Z,26.25
2019-03-23T02:55:54.416Z,26.70
2019-03-23T02:58:23.394Z,26.77
2019-03-23T03:00:52.445Z,27.48
2019-03-23T03:03:21.394Z,27.50
2019-03-23T03:05:50.327Z,28.83
2019-03-23T03:08:19.328Z,26.97
2019-03-23T03:10:48.248Z,29.52
2019-03-23T03:13:17.149Z,27.10
2019-03-23T03:15:46.086Z,28.83
2019-03-23T03:18:15.984Z,28.30
2019-03-23T03:20:44.982Z,28.50
2019-03-23T03:23:13.894Z,26.82
2019-03-23T03:25:42.900Z,27.07
2019-03-23T03:28:11.797Z,26.48
2019-03-23T03:30:40.760Z,25.88
2019-03-23T03:33:10.733Z,26.20
2019-03-23T03:35:39.719Z,24.60
2019-03-23T03:38:08.699Z,25.52
2019-03-23T03:40:37.653Z,24.92
2019-03-23T03:43:06.593Z,26.62
2019-03-23T03:45:35.577Z,26.73
2019-03-23T03:48:04.538Z,26.23
2019-03-23T03:50:33.455Z,26.07
2019-03-23T03:53:02.479Z,25.20
2019-03-23T03:55:31.476Z,26.07
2019-03-23T03:58:00.487Z,25.20
2019-03-23T04:00:30.618Z,24.60
2019-03-23T04:02:59.558Z,25.88
2019-03-23T04:05:28.496Z,25.17
2019-03-23T04:08:10.389Z,26.87
2019-03-23T04:10:28.136Z,24.70
2019-03-23T04:12:57.116Z,26.55
2019-03-23T04:15:26.041Z,23.83
2019-03-23T04:17:54.952Z,25.35
2019-03-23T04:20:23.908Z,25.43
2019-03-23T04:22:52.881Z,25.85
2019-03-23T04:25:22.945Z,25.97
2019-03-23T04:27:51.851Z,27.05
2019-03-23T04:30:20.803Z,26.27
2019-03-23T04:32:49.777Z,26.75
2019-03-23T04:35:18.781Z,27.00
2019-03-23T04:37:47.731Z,27.00
2019-03-23T04:40:16.732Z,26.97
2019-03-23T04:42:45.781Z,26.82
2019-03-23T04:45:14.738Z,27.15
2019-03-23T04:47:43.681Z,26.95
2019-03-23T04:50:12.630Z,27.13
2019-03-23T04:52:41.579Z,28.45
2019-03-23T04:55:10.820Z,26.82
2019-03-23T04:57:40.235Z,27.82
2019-03-23T05:00:11.243Z,29.98
2019-03-23T05:02:40.274Z,28.35
2019-03-23T05:05:09.290Z,28.62
2019-03-23T05:07:38.340Z,26.85
2019-03-23T05:10:07.394Z,26.35
2019-03-23T05:12:36.351Z,28.70
2019-03-23T05:15:05.521Z,28.77
2019-03-23T05:17:34.552Z,29.12
2019-03-23T05:20:04.026Z,29.87
2019-03-23T05:22:32.946Z,29.77
2019-03-23T05:25:01.918Z,29.63
2019-03-23T05:27:30.838Z,28.30
2019-03-23T05:29:59.754Z,27.85
2019-03-23T05:32:28.741Z,25.88
2019-03-23T05:34:57.710Z,26.62
2019-03-23T05:37:26.652Z,26.57
2019-03-23T05:39:55.576Z,26.93
2019-03-23T05:42:25.574Z,26.35
2019-03-23T05:44:54.497Z,26.87
2019-03-23T05:47:23.440Z,26.70
2019-03-23T05:49:52.364Z,25.35
2019-03-23T05:52:21.290Z,25.17
2019-03-23T05:54:50.197Z,27.37
2019-03-23T05:57:19.940Z,26.07
2019-03-23T05:59:48.972Z,27.00
2019-03-23T06:02:17.922Z,27.05
2019-03-23T06:04:46.858Z,27.58
2019-03-23T06:07:15.819Z,28.57
2019-03-23T06:09:44.778Z,28.42
2019-03-23T06:12:13.764Z,28.67
2019-03-23T06:14:42.734Z,29.02
2019-03-23T06:17:11.851Z,29.05
2019-03-23T06:19:40.837Z,28.60
2019-03-23T06:22:12.186Z,29.25
2019-03-23T06:24:40.494Z,28.23
2019-03-23T06:27:09.438Z,28.15
2019-03-23T06:29:38.423Z,28.35
2019-03-23T06:32:07.379Z,28.23
2019-03-23T06:34:36.372Z,26.87
2019-03-23T06:37:06.402Z,26.17
2019-03-23T06:39:35.335Z,25.92
2019-03-23T06:42:04.304Z,26.70
2019-03-23T06:44:33.750Z,25.43
2019-03-23T06:47:02.757Z,25.60
2019-03-23T06:49:31.664Z,26.20
2019-03-23T06:52:00.674Z,25.50
2019-03-23T06:54:29.681Z,25.08
2019-03-23T06:56:58.597Z,27.05
2019-03-23T06:59:27.524Z,26.80
2019-03-23T07:01:57.575Z,25.30
2019-03-23T07:04:26.888Z,27.17
2019-03-23T07:06:55.897Z,27.05
2019-03-23T07:09:24.899Z,26.40
2019-03-23T07:11:53.838Z,26.73
2019-03-23T07:14:22.769Z,26.57
2019-03-23T07:16:51.691Z,26.65
2019-03-23T07:19:20.651Z,24.85
2019-03-23T07:21:49.578Z,26.60
2019-03-23T07:24:18.640Z,25.57
2019-03-23T07:26:47.617Z,28.25
2019-03-23T07:29:16.606Z,26.62
2019-03-23T07:31:45.644Z,27.32
2019-03-23T07:34:14.603Z,28.42
2019-03-23T07:36:43.571Z,28.10
2019-03-23T07:39:12.590Z,27.82
2019-03-23T07:41:41.529Z,28.17
2019-03-23T07:44:10.514Z,28.40
2019-03-23T07:46:39.521Z,27.32
2019-03-23T07:49:08.510Z,26.95
2019-03-23T07:51:37.557Z,26.27
2019-03-23T07:54:06.605Z,25.97
2019-03-23T07:56:35.670Z,26.33
2019-03-23T07:59:04.752Z,26.73
2019-03-23T08:01:33.749Z,26.87
2019-03-23T08:04:02.720Z,27.52
2019-03-23T08:06:31.667Z,27.27
2019-03-23T08:09:00.602Z,27.20
2019-03-23T08:11:29.786Z,27.93
2019-03-23T08:13:58.729Z,26.42
2019-03-23T08:16:27.725Z,28.32
2019-03-23T08:18:56.703Z,28.15
2019-03-23T08:21:25.749Z,27.50
2019-03-23T08:23:54.738Z,27.93
2019-03-23T08:26:24.628Z,26.87
2019-03-23T08:28:54.729Z,26.90
2019-03-23T08:31:23.679Z,26.70
2019-03-23T08:33:52.697Z,28.05
2019-03-23T08:36:21.666Z,27.98
2019-03-23T08:38:51.754Z,25.45
2019-03-23T08:41:20.728Z,27.50
2019-03-23T08:43:49.720Z,27.70
2019-03-23T08:46:19.757Z,27.37
2019-03-23T08:48:48.748Z,27.80
2019-03-23T08:51:17.701Z,26.23
2019-03-23T08:53:49.756Z,26.87
2019-03-23T08:56:18.791Z,27.73
2019-03-23T08:58:48.804Z,27.15
2019-03-23T09:01:17.954Z,26.82
2019-03-23T09:03:52.491Z,27.10
2019-03-23T09:06:17.582Z,26.70
2019-03-23T09:08:46.570Z,26.40
2019-03-23T09:11:20.473Z,27.22
2019-03-23T09:13:46.164Z,28.80
2019-03-23T09:16:15.142Z,26.15
2019-03-23T09:18:44.170Z,26.30
2019-03-23T09:21:13.106Z,28.52
2019-03-23T09:23:42.095Z,27.00
2019-03-23T09:26:11.098Z,27.20
2019-03-23T09:28:40.030Z,27.75
2019-03-23T09:31:08.984Z,28.33
2019-03-23T09:33:38.355Z,28.52
2019-03-23T09:36:07.431Z,27.25
2019-03-23T09:38:36.521Z,27.02
2019-03-23T09:41:05.462Z,27.22
2019-03-23T09:43:34.368Z,27.52
2019-03-23T09:46:03.421Z,25.43
2019-03-23T09:48:32.468Z,26.35
2019-03-23T09:51:01.520Z,27.58
2019-03-23T09:53:30.583Z,26.82
2019-03-23T09:55:59.522Z,25.97
2019-03-23T09:58:28.582Z,27.60
2019-03-23T10:00:57.611Z,25.57
2019-03-23T10:03:27.660Z,26.82
2019-03-23T10:05:56.634Z,26.48
2019-03-23T10:08:25.647Z,26.95
2019-03-23T10:10:54.795Z,27.20
2019-03-23T10:13:23.804Z,26.60
2019-03-23T10:15:52.784Z,27.40
2019-03-23T10:18:21.734Z,26.62
2019-03-23T10:20:50.712Z,25.85
2019-03-23T10:23:19.656Z,26.48
2019-03-23T10:25:48.670Z,25.40
2019-03-23T10:28:18.204Z,26.68
2019-03-23T10:30:47.383Z,26.23
2019-03-23T10:33:16.317Z,27.00
2019-03-23T10:35:45.345Z,27.13
2019-03-23T10:38:14.268Z,27.62
2019-03-23T10:40:43.293Z,26.48
2019-03-23T10:43:18.470Z,26.90
2019-03-23T10:45:47.681Z,28.02
2019-03-23T10:48:16.835Z,26.37
2019-03-23T10:50:45.846Z,26.40
2019-03-23T10:53:22.854Z,25.20
2019-03-23T10:55:45.481Z,25.62
2019-03-23T10:58:14.484Z,25.57
2019-03-23T11:00:43.483Z,26.80
2019-03-23T11:03:13.524Z,25.57
2019-03-23T11:05:42.640Z,26.60
2019-03-23T11:08:11.643Z,25.85
2019-03-23T11:10:41.983Z,25.92
2019-03-23T11:13:11.240Z,27.05
2019-03-23T11:15:40.338Z,26.17
2019-03-23T11:18:09.381Z,25.88
2019-03-23T11:20:39.444Z,25.57
2019-03-23T11:23:09.344Z,24.50
2019-03-23T11:25:38.313Z,25.82
2019-03-23T11:28:07.248Z,25.00
2019-03-23T11:30:36.236Z,25.27
2019-03-23T11:33:05.256Z,25.53
2019-03-23T11:35:34.191Z,25.23
2019-03-23T11:38:03.166Z,24.90
2019-03-23T11:40:32.191Z,24.55
2019-03-23T11:43:01.179Z,25.60
2019-03-23T11:45:30.143Z,25.52
2019-03-23T11:47:59.076Z,25.30
2019-03-23T11:50:28.167Z,25.37
2019-03-23T11:52:57.191Z,26.50
2019-03-23T11:55:26.340Z,24.85
2019-03-23T11:57:55.288Z,25.75
2019-03-23T12:00:24.330Z,23.38
2019-03-23T12:02:53.276Z,25.72
2019-03-23T12:05:23.299Z,25.17
2019-03-23T12:07:52.340Z,25.95
2019-03-23T12:10:21.356Z,26.23
2019-03-23T12:12:50.348Z,26.20
2019-03-23T12:15:19.349Z,26.07
2019-03-23T12:17:48.285Z,25.57
2019-03-23T12:20:17.367Z,26.63
2019-03-23T12:22:46.413Z,25.40
2019-03-23T12:25:15.499Z,25.50
2019-03-23T12:27:44.511Z,23.83
2019-03-23T12:30:14.258Z,23.22
2019-03-23T12:32:43.274Z,21.73
2019-03-23T12:35:12.462Z,22.60
2019-03-23T12:37:41.629Z,22.20
2019-03-23T12:40:10.852Z,20.70
2019-03-23T12:42:39.916Z,22.50
2019-03-23T12:45:09.794Z,19.73
2019-03-23T12:47:38.686Z,20.65
2019-03-23T12:50:08.042Z,21.27
2019-03-23T12:52:37.003Z,21.10
2019-03-23T12:55:06.405Z,19.50
2019-03-23T12:57:35.447Z,19.30
2019-03-23T13:00:05.614Z,19.17
2019-03-23T13:02:34.639Z,18.20
2019-03-23T13:05:05.382Z,16.77
2019-03-23T13:07:34.342Z,16.55
2019-03-23T13:10:03.334Z,13.90
2019-03-23T13:12:33.348Z,14.38
2019-03-23T13:15:02.392Z,12.47
2019-03-23T13:17:31.374Z,10.95
2019-03-23T13:20:00.490Z,9.28
2019-03-23T13:22:29.556Z,10.20
2019-03-23T13:24:58.560Z,10.68
2019-03-23T13:27:27.595Z,8.73
2019-03-23T13:29:56.542Z,8.53
2019-03-23T13:32:25.520Z,7.15
2019-03-23T13:34:54.502Z,7.67
2019-03-23T13:37:23.453Z,6.28
2019-03-23T13:39:52.496Z,6.80
2019-03-23T13:42:21.452Z,5.60
2019-03-23T13:44:50.680Z,4.90
2019-03-23T13:47:19.712Z,4.05
2019-03-23T13:49:48.653Z,3.75
2019-03-23T13:52:17.617Z,3.90
2019-03-23T13:54:46.630Z,3.75
2019-03-23T13:57:15.988Z,3.35
2019-03-23T13:59:45.057Z,3.08
2019-03-23T14:02:14.969Z,2.83
2019-03-23T14:04:43.908Z,2.58
2019-03-23T14:07:12.915Z,1.70
2019-03-23T14:09:42.717Z,2.33
2019-03-23T14:12:11.626Z,1.82
2019-03-23T14:14:40.603Z,1.87
2019-03-23T14:17:12.629Z,1.90
2019-03-23T14:19:43.476Z,2.10
2019-03-23T14:22:12.496Z,2.12
2019-03-23T14:24:41.494Z,2.10
2019-03-23T14:27:10.509Z,1.70
2019-03-23T14:29:39.477Z,1.75
2019-03-23T14:32:08.447Z,1.40
2019-03-23T14:34:37.481Z,1.42
2019-03-23T14:37:06.569Z,1.62
2019-03-23T14:39:35.502Z,1.70
2019-03-23T14:42:05.252Z,1.50
2019-03-23T14:44:34.444Z,1.55
2019-03-23T14:47:03.490Z,1.80
2019-03-23T14:49:32.398Z,1.82
2019-03-23T14:52:01.359Z,1.72
2019-03-23T14:54:30.263Z,1.65
2019-03-23T14:56:59.272Z,1.37
2019-03-23T14:59:28.271Z,1.60
2019-03-23T15:01:58.420Z,1.47
2019-03-23T15:04:27.406Z,2.10
2019-03-23T15:06:56.331Z,1.47
2019-03-23T15:09:28.112Z,2.15
2019-03-23T15:11:57.202Z,1.67
2019-03-23T15:14:26.375Z,1.75
2019-03-23T15:16:55.502Z,1.70
2019-03-23T15:19:24.459Z,1.62
2019-03-23T15:21:53.430Z,1.50
2019-03-23T15:24:23.477Z,2.08
2019-03-23T15:26:52.545Z,1.40
2019-03-23T15:29:21.513Z,1.57
2019-03-23T15:31:50.432Z,1.50
2019-03-23T15:34:19.395Z,1.10
2019-03-23T15:36:48.360Z,1.40
2019-03-23T15:39:17.357Z,1.50
2019-03-23T15:41:46.290Z,1.40
2019-03-23T15:44:17.213Z,1.67
2019-03-23T15:46:45.903Z,1.57
2019-03-23T15:49:14.894Z,1.67
2019-03-23T15:51:43.815Z,2.10
2019-03-23T15:54:12.845Z,2.15
2019-03-23T15:56:41.779Z,1.90
2019-03-23T15:59:10.738Z,1.60
2019-03-23T16:01:39.745Z,2.05
2019-03-23T16:04:10.940Z,1.90
2019-03-23T16:06:39.889Z,1.90
2019-03-23T16:09:08.819Z,1.67
2019-03-23T16:11:37.751Z,1.80
2019-03-23T16:14:06.734Z,1.70
2019-03-23T16:16:35.683Z,1.55
2019-03-23T16:19:04.765Z,1.55
2019-03-23T16:21:33.724Z,1.70
2019-03-23T16:24:02.688Z,1.30
2019-03-23T16:26:31.874Z,1.55
2019-03-23T16:29:00.918Z,1.65
2019-03-23T16:31:29.946Z,1.82
2019-03-23T16:33:58.954Z,1.87
2019-03-23T16:36:27.888Z,1.72
2019-03-23T16:38:56.967Z,1.70
2019-03-23T16:41:26.058Z,1.95
2019-03-23T16:43:55.062Z,1.40
2019-03-23T16:46:24.100Z,1.30
2019-03-23T16:48:53.058Z,1.52
2019-03-23T16:51:22.038Z,1.42
2019-03-23T16:53:51.146Z,1.47
2019-03-23T16:56:20.184Z,1.65
2019-03-23T16:58:49.172Z,1.70
2019-03-23T17:01:18.461Z,1.85
2019-03-23T17:03:48.993Z,1.82
2019-03-23T17:06:18.048Z,1.80
2019-03-23T17:08:47.502Z,1.30
2019-03-23T17:11:16.440Z,1.67
2019-03-23T17:13:45.397Z,1.50
2019-03-23T17:16:14.377Z,1.70
2019-03-23T17:18:43.979Z,2.45
2019-03-23T17:21:13.766Z,1.72
2019-03-23T17:23:45.695Z,2.47
2019-03-23T17:26:14.947Z,1.75
2019-03-23T17:28:43.949Z,1.92
2019-03-23T17:31:12.866Z,2.17
2019-03-23T17:33:42.982Z,2.30
2019-03-23T17:36:11.985Z,2.47
2019-03-23T17:38:40.943Z,2.25
2019-03-23T17:41:10.447Z,1.90
2019-03-23T17:43:42.710Z,2.17
2019-03-23T17:46:11.655Z,1.92
2019-03-23T17:48:40.587Z,2.02
2019-03-23T17:51:09.644Z,2.33
2019-03-23T17:53:39.530Z,1.95
2019-03-23T17:56:08.482Z,2.40
2019-03-23T17:58:37.407Z,2.70
2019-03-23T18:01:06.587Z,2.20
2019-03-23T18:03:36.787Z,2.42
2019-03-23T18:06:05.784Z,2.15
2019-03-23T18:08:35.412Z,1.95
2019-03-23T18:11:04.396Z,2.40
2019-03-23T18:13:33.366Z,2.17
2019-03-23T18:16:02.321Z,2.30
2019-03-23T18:18:31.250Z,2.45
2019-03-23T18:21:00.208Z,2.37
2019-03-23T18:23:29.168Z,2.02
2019-03-23T18:25:58.100Z,1.80
2019-03-23T18:28:27.049Z,2.22
2019-03-23T18:30:56.104Z,1.98
2019-03-23T18:33:25.071Z,1.87
2019-03-23T18:35:54.134Z,1.98
2019-03-23T18:38:23.201Z,1.75
2019-03-23T18:40:52.193Z,2.20
2019-03-23T18:43:27.574Z,1.75
2019-03-23T18:45:51.957Z,1.98
2019-03-23T18:48:20.911Z,1.50
2019-03-23T18:50:49.949Z,2.33
2019-03-23T18:53:20.048Z,2.05
2019-03-23T18:55:49.073Z,2.33
2019-03-23T18:58:18.151Z,2.10
2019-03-23T19:00:47.255Z,1.72
2019-03-23T19:03:16.183Z,2.08
2019-03-23T19:05:45.158Z,2.15
2019-03-23T19:08:14.215Z,1.82
2019-03-23T19:10:43.187Z,2.45
2019-03-23T19:13:12.877Z,2.20
2019-03-23T19:15:41.975Z,2.17
2019-03-23T19:18:10.933Z,2.33
2019-03-23T19:20:40.015Z,2.02
2019-03-23T19:23:08.979Z,2.30
2019-03-23T19:25:38.087Z,2.33
2019-03-23T19:28:07.200Z,2.30
2019-03-23T19:30:36.156Z,2.60
2019-03-23T19:33:06.333Z,1.95
2019-03-23T19:35:35.429Z,2.33
2019-03-23T19:38:04.446Z,2.22
2019-03-23T19:40:33.419Z,2.20
2019-03-23T19:43:02.375Z,2.52
2019-03-23T19:45:32.465Z,2.27
2019-03-23T19:48:01.478Z,2.25
2019-03-23T19:50:30.527Z,2.22
2019-03-23T19:52:59.542Z,2.27
2019-03-23T19:55:28.525Z,2.35
2019-03-23T19:57:57.485Z,2.30
2019-03-23T20:00:26.441Z,2.37
2019-03-23T20:02:55.387Z,2.52
2019-03-23T20:05:24.306Z,2.40
2019-03-23T20:07:53.340Z,2.33
2019-03-23T20:10:22.298Z,2.65
2019-03-23T20:12:51.291Z,2.90
2019-03-23T20:15:20.444Z,2.58
2019-03-23T20:17:49.466Z,2.45
2019-03-23T20:20:20.002Z,2.70
2019-03-23T20:22:49.218Z,3.27
2019-03-23T20:25:18.208Z,2.80
2019-03-23T20:27:47.201Z,3.08
2019-03-23T20:30:16.418Z,3.12
2019-03-23T20:32:45.531Z,2.50
2019-03-23T20:35:14.531Z,3.08
2019-03-23T20:37:43.465Z,3.05
2019-03-23T20:40:13.435Z,2.85
2019-03-23T20:42:43.912Z,3.58
2019-03-23T20:45:14.507Z,3.15
2019-03-23T20:47:43.668Z,3.27
2019-03-23T20:50:12.778Z,3.10
2019-03-23T20:52:42.723Z,3.37
2019-03-23T20:55:15.187Z,2.90
2019-03-23T20:57:44.219Z,3.10
2019-03-23T21:00:13.330Z,3.40
2019-03-23T21:02:43.184Z,3.08
2019-03-23T21:05:12.262Z,3.08
2019-03-23T21:07:41.383Z,2.62
2019-03-23T21:10:10.442Z,3.37
2019-03-23T21:12:39.470Z,3.60
2019-03-23T21:15:08.651Z,2.98
2019-03-23T21:17:50.465Z,3.42
2019-03-23T21:20:08.342Z,3.37
2019-03-23T21:22:37.323Z,3.27
2019-03-23T21:25:06.678Z,3.40
2019-03-23T21:27:35.838Z,2.95
2019-03-23T21:30:06.178Z,3.65
2019-03-23T21:32:35.139Z,3.17
2019-03-23T21:35:04.117Z,3.15
2019-03-23T21:37:33.091Z,3.12
2019-03-23T21:40:02.057Z,3.10
2019-03-23T21:42:32.034Z,2.95
2019-03-23T21:45:01.048Z,2.87
2019-03-23T21:47:31.400Z,3.52
2019-03-23T21:50:00.391Z,2.67
2019-03-23T21:52:29.468Z,2.98
2019-03-23T21:54:58.407Z,3.05
2019-03-23T21:57:27.373Z,2.75
2019-03-23T21:59:56.796Z,3.10
2019-03-23T22:02:25.739Z,3.02
2019-03-23T22:04:54.654Z,2.47
2019-03-23T22:07:23.579Z,3.17
2019-03-23T22:09:52.541Z,3.17
2019-03-23T22:12:21.535Z,3.30
2019-03-23T22:14:50.525Z,2.80
2019-03-23T22:17:19.582Z,3.27
2019-03-23T22:19:48.573Z,2.67
2019-03-23T22:22:17.531Z,3.20
2019-03-23T22:24:46.438Z,3.27
2019-03-23T22:27:15.423Z,2.80
2019-03-23T22:29:45.676Z,2.72
2019-03-23T22:32:14.638Z,3.35
2019-03-23T22:34:43.566Z,3.67
2019-03-23T22:37:12.493Z,3.30
2019-03-23T22:39:41.419Z,3.30
2019-03-23T22:42:10.429Z,3.52
2019-03-23T22:44:39.362Z,3.20
2019-03-23T22:47:08.290Z,3.47
2019-03-23T22:49:37.291Z,3.50
2019-03-23T22:52:06.275Z,3.70
2019-03-23T22:54:35.234Z,3.47
2019-03-23T22:57:05.155Z,3.60
2019-03-23T22:59:34.096Z,3.40
2019-03-23T23:02:03.029Z,3.33
2019-03-23T23:04:31.975Z,3.58
2019-03-23T23:07:00.905Z,3.70
2019-03-23T23:09:29.856Z,3.77
2019-03-23T23:11:59.086Z,3.65
2019-03-23T23:14:28.072Z,3.50
2019-03-23T23:16:57.037Z,3.70
2019-03-23T23:19:25.992Z,3.42
2019-03-23T23:21:54.809Z,3.85
2019-03-23T23:24:23.740Z,3.45
2019-03-23T23:26:52.726Z,3.87
2019-03-23T23:29:21.655Z,4.03
2019-03-23T23:31:50.576Z,3.40
2019-03-23T23:34:19.568Z,3.33
2019-03-23T23:36:48.523Z,3.92
2019-03-23T23:39:17.483Z,3.80
2019-03-23T23:41:46.424Z,3.85
2019-03-23T23:44:15.379Z,3.47
2019-03-23T23:46:44.382Z,3.50
2019-03-23T23:49:14.394Z,3.58
2019-03-23T23:51:50.097Z,3.65
2019-03-23T23:54:13.998Z,3.73
2019-03-23T23:56:42.992Z,3.90
2019-03-23T23:59:11.986Z,3.75
